sensor_id;sensor_type;location;lat;lon;timestamp;P1;durP1;ratioP1;P2;durP2;ratioP2
483;SDS011;228;48.922;12.198;2022-09-17T09:46:53;10.40;;;3.05;;
483;SDS011;228;48.922;12.198;2022-09-17T09:57:16;4.55;;;2.50;;
483;SDS011;228;48.922;12.198;2022-09-17T10:16:23;8.13;;;2.30;;
483;SDS011;228;48.922;12.198;2022-09-17T10:19:10;5.10;;;2.17;;
483;SDS011;228;48.922;12.198;2022-09-17T10:21:36;6.95;;;2.17;;
483;SDS011;228;48.922;12.198;2022-09-17T10:24:04;6.63;;;2.33;;
483;SDS011;228;48.922;12.198;2022-09-17T10:35:35;5.75;;;2.25;;
483;SDS011;228;48.922;12.198;2022-09-17T10:38:00;10.85;;;2.65;;
483;SDS011;228;48.922;12.198;2022-09-17T10:40:27;6.20;;;2.13;;
483;SDS011;228;48.922;12.198;2022-09-17T10:45:39;8.10;;;2.30;;
483;SDS011;228;48.922;12.198;2022-09-17T10:48:12;4.32;;;2.15;;
483;SDS011;228;48.922;12.198;2022-09-17T10:50:39;5.05;;;1.90;;
483;SDS011;228;48.922;12.198;2022-09-17T10:53:05;4.70;;;2.10;;
483;SDS011;228;48.922;12.198;2022-09-17T11:08:46;5.50;;;2.53;;
483;SDS011;228;48.922;12.198;2022-09-17T11:11:50;3.70;;;1.95;;
483;SDS011;228;48.922;12.198;2022-09-17T11:21:56;4.43;;;2.00;;
483;SDS011;228;48.922;12.198;2022-09-17T11:24:29;4.38;;;2.00;;
483;SDS011;228;48.922;12.198;2022-09-17T11:30:32;4.03;;;2.00;;
483;SDS011;228;48.922;12.198;2022-09-17T11:37:45;4.03;;;1.83;;
483;SDS011;228;48.922;12.198;2022-09-17T11:40:18;3.42;;;1.92;;
483;SDS011;228;48.922;12.198;2022-09-17T11:48:00;4.57;;;1.83;;
483;SDS011;228;48.922;12.198;2022-09-17T11:50:50;2.47;;;1.90;;
483;SDS011;228;48.922;12.198;2022-09-17T11:53:19;4.32;;;2.17;;
483;SDS011;228;48.922;12.198;2022-09-17T11:58:33;3.53;;;1.90;;
483;SDS011;228;48.922;12.198;2022-09-17T12:01:02;3.00;;;1.90;;
483;SDS011;228;48.922;12.198;2022-09-17T12:03:32;6.35;;;1.95;;
483;SDS011;228;48.922;12.198;2022-09-17T12:06:00;3.70;;;1.83;;
483;SDS011;228;48.922;12.198;2022-09-17T12:08:33;4.75;;;2.05;;
483;SDS011;228;48.922;12.198;2022-09-17T12:11:05;3.33;;;1.70;;
483;SDS011;228;48.922;12.198;2022-09-17T12:13:39;3.08;;;1.90;;
483;SDS011;228;48.922;12.198;2022-09-17T12:16:18;2.45;;;1.55;;
483;SDS011;228;48.922;12.198;2022-09-17T12:18:52;2.72;;;1.80;;
483;SDS011;228;48.922;12.198;2022-09-17T12:21:21;4.10;;;1.75;;
483;SDS011;228;48.922;12.198;2022-09-17T12:23:59;3.55;;;1.90;;
483;SDS011;228;48.922;12.198;2022-09-17T12:26:40;4.93;;;1.80;;
483;SDS011;228;48.922;12.198;2022-09-17T12:29:29;2.50;;;1.92;;
483;SDS011;228;48.922;12.198;2022-09-17T12:37:12;2.53;;;1.70;;
483;SDS011;228;48.922;12.198;2022-09-17T12:40:28;2.08;;;1.75;;
483;SDS011;228;48.922;12.198;2022-09-17T12:58:16;6.97;;;2.40;;
483;SDS011;228;48.922;12.198;2022-09-17T13:00:45;6.43;;;2.58;;
483;SDS011;228;48.922;12.198;2022-09-17T13:03:20;6.85;;;2.45;;
483;SDS011;228;48.922;12.198;2022-09-17T13:16:02;7.63;;;2.20;;
483;SDS011;228;48.922;12.198;2022-09-17T13:21:06;6.15;;;2.35;;
483;SDS011;228;48.922;12.198;2022-09-17T13:23:45;5.35;;;2.30;;
483;SDS011;228;48.922;12.198;2022-09-17T13:26:12;6.78;;;2.58;;
483;SDS011;228;48.922;12.198;2022-09-17T13:28:50;6.50;;;2.45;;
483;SDS011;228;48.922;12.198;2022-09-17T13:31:20;9.20;;;2.40;;
483;SDS011;228;48.922;12.198;2022-09-17T13:33:53;8.20;;;2.40;;
483;SDS011;228;48.922;12.198;2022-09-17T13:36:38;6.00;;;2.45;;
483;SDS011;228;48.922;12.198;2022-09-17T13:39:06;9.60;;;2.60;;
483;SDS011;228;48.922;12.198;2022-09-17T13:41:33;5.38;;;2.33;;
483;SDS011;228;48.922;12.198;2022-09-17T13:43:59;6.13;;;2.17;;
483;SDS011;228;48.922;12.198;2022-09-17T13:46:27;5.30;;;2.58;;
483;SDS011;228;48.922;12.198;2022-09-17T13:49:03;3.40;;;2.03;;
483;SDS011;228;48.922;12.198;2022-09-17T13:53:57;4.32;;;2.28;;
483;SDS011;228;48.922;12.198;2022-09-17T13:56:34;3.90;;;1.98;;
483;SDS011;228;48.922;12.198;2022-09-17T13:59:07;5.32;;;2.30;;
483;SDS011;228;48.922;12.198;2022-09-17T14:04:34;4.10;;;2.00;;
483;SDS011;228;48.922;12.198;2022-09-17T14:17:50;5.80;;;2.38;;
483;SDS011;228;48.922;12.198;2022-09-17T14:20:17;4.20;;;2.33;;
483;SDS011;228;48.922;12.198;2022-09-17T14:22:43;3.08;;;1.77;;
483;SDS011;228;48.922;12.198;2022-09-17T14:25:15;4.70;;;1.90;;
483;SDS011;228;48.922;12.198;2022-09-17T14:30:22;5.00;;;1.77;;
483;SDS011;228;48.922;12.198;2022-09-17T14:38:15;3.35;;;1.77;;
483;SDS011;228;48.922;12.198;2022-09-17T14:40:43;3.15;;;1.80;;
483;SDS011;228;48.922;12.198;2022-09-17T14:45:58;3.38;;;1.50;;
483;SDS011;228;48.922;12.198;2022-09-17T14:48:32;2.22;;;1.40;;
483;SDS011;228;48.922;12.198;2022-09-17T14:53:42;2.35;;;1.80;;
483;SDS011;228;48.922;12.198;2022-09-17T14:56:11;2.20;;;1.50;;
483;SDS011;228;48.922;12.198;2022-09-17T14:58:39;4.25;;;1.75;;
483;SDS011;228;48.922;12.198;2022-09-17T15:01:12;2.60;;;1.50;;
483;SDS011;228;48.922;12.198;2022-09-17T15:03:45;2.22;;;1.75;;
483;SDS011;228;48.922;12.198;2022-09-17T15:06:20;4.25;;;1.70;;
483;SDS011;228;48.922;12.198;2022-09-17T15:08:46;6.50;;;1.77;;
483;SDS011;228;48.922;12.198;2022-09-17T15:11:11;4.40;;;1.77;;
483;SDS011;228;48.922;12.198;2022-09-17T15:22:24;4.63;;;1.73;;
483;SDS011;228;48.922;12.198;2022-09-17T15:27:48;6.80;;;2.08;;
483;SDS011;228;48.922;12.198;2022-09-17T15:33:01;4.63;;;1.90;;
483;SDS011;228;48.922;12.198;2022-09-17T15:35:30;3.70;;;2.10;;
483;SDS011;228;48.922;12.198;2022-09-17T15:37:58;4.57;;;2.17;;
483;SDS011;228;48.922;12.198;2022-09-17T15:47:48;5.05;;;2.58;;
483;SDS011;228;48.922;12.198;2022-09-17T15:52:48;4.15;;;2.13;;
483;SDS011;228;48.922;12.198;2022-09-17T16:08:45;3.40;;;1.90;;
483;SDS011;228;48.922;12.198;2022-09-17T16:11:20;3.50;;;1.63;;
483;SDS011;228;48.922;12.198;2022-09-17T16:13:51;3.95;;;1.88;;
483;SDS011;228;48.922;12.198;2022-09-17T16:16:20;9.77;;;2.33;;
483;SDS011;228;48.922;12.198;2022-09-17T16:18:49;5.93;;;2.10;;
483;SDS011;228;48.922;12.198;2022-09-17T16:21:16;5.22;;;2.00;;
483;SDS011;228;48.922;12.198;2022-09-17T16:23:44;2.97;;;2.00;;
483;SDS011;228;48.922;12.198;2022-09-17T16:26:29;4.00;;;1.92;;
483;SDS011;228;48.922;12.198;2022-09-17T16:29:00;3.88;;;2.13;;
483;SDS011;228;48.922;12.198;2022-09-17T16:31:31;2.83;;;2.00;;
483;SDS011;228;48.922;12.198;2022-09-17T16:33:58;2.13;;;1.83;;
483;SDS011;228;48.922;12.198;2022-09-17T16:36:24;4.55;;;2.00;;
483;SDS011;228;48.922;12.198;2022-09-17T16:38:51;3.67;;;1.75;;
483;SDS011;228;48.922;12.198;2022-09-17T16:41:17;4.60;;;1.90;;
483;SDS011;228;48.922;12.198;2022-09-17T16:43:43;4.10;;;1.90;;
483;SDS011;228;48.922;12.198;2022-09-17T16:46:10;5.88;;;2.10;;
483;SDS011;228;48.922;12.198;2022-09-17T16:48:36;4.95;;;1.67;;
483;SDS011;228;48.922;12.198;2022-09-17T16:51:09;4.25;;;2.13;;
483;SDS011;228;48.922;12.198;2022-09-17T16:53:37;3.78;;;1.88;;
483;SDS011;228;48.922;12.198;2022-09-17T16:56:07;3.88;;;2.20;;
483;SDS011;228;48.922;12.198;2022-09-17T16:58:35;7.88;;;2.10;;
483;SDS011;228;48.922;12.198;2022-09-17T17:01:08;2.80;;;1.70;;
483;SDS011;228;48.922;12.198;2022-09-17T17:03:37;5.85;;;2.13;;
483;SDS011;228;48.922;12.198;2022-09-17T17:06:03;4.82;;;1.98;;
483;SDS011;228;48.922;12.198;2022-09-17T17:08:30;6.03;;;2.10;;
483;SDS011;228;48.922;12.198;2022-09-17T17:10:58;4.50;;;1.75;;
483;SDS011;228;48.922;12.198;2022-09-17T17:13:25;5.25;;;1.92;;
483;SDS011;228;48.922;12.198;2022-09-17T17:15:52;4.00;;;1.80;;
483;SDS011;228;48.922;12.198;2022-09-17T17:18:21;6.95;;;2.10;;
483;SDS011;228;48.922;12.198;2022-09-17T17:20:49;2.88;;;1.90;;
483;SDS011;228;48.922;12.198;2022-09-17T17:23:15;6.05;;;2.00;;
483;SDS011;228;48.922;12.198;2022-09-17T17:25:41;6.30;;;2.00;;
483;SDS011;228;48.922;12.198;2022-09-17T17:28:08;5.25;;;1.92;;
483;SDS011;228;48.922;12.198;2022-09-17T17:30:35;3.40;;;1.83;;
483;SDS011;228;48.922;12.198;2022-09-17T17:33:02;7.30;;;1.95;;
483;SDS011;228;48.922;12.198;2022-09-17T17:35:28;7.05;;;2.20;;
483;SDS011;228;48.922;12.198;2022-09-17T17:37:55;5.97;;;2.25;;
483;SDS011;228;48.922;12.198;2022-09-17T17:40:21;4.60;;;2.33;;
483;SDS011;228;48.922;12.198;2022-09-17T17:42:23;3.08;;;1.85;;
483;SDS011;228;48.922;12.198;2022-09-17T17:42:44;5.85;;;2.20;;
483;SDS011;228;48.922;12.198;2022-09-17T17:43:11;5.97;;;2.03;;
483;SDS011;228;48.922;12.198;2022-09-17T17:43:32;6.70;;;2.10;;
483;SDS011;228;48.922;12.198;2022-09-17T17:44:04;5.60;;;2.15;;
483;SDS011;228;48.922;12.198;2022-09-17T17:44:25;13.00;;;2.58;;
483;SDS011;228;48.922;12.198;2022-09-17T17:44:59;5.55;;;2.22;;
483;SDS011;228;48.922;12.198;2022-09-17T17:45:20;5.63;;;2.45;;
483;SDS011;228;48.922;12.198;2022-09-17T17:45:41;8.43;;;2.35;;
483;SDS011;228;48.922;12.198;2022-09-17T17:46:06;7.65;;;2.28;;
